Motion Scan — PCNB — position and weather

sailwx.info

Track history (hours):
 
Tides and Currents Weather Stations Pressure Air Temp Water Temp Dewpoint Dewpoint Depression Visibility Wind Speed Wind Dir Waves Ship Positions

Motion Scan

Last reported at 2014-Sep-18 14:29 UTC. Time now 2014-Sep-18 19:49 UTC.
Position N 38°19' E 014°40'.

Length 116 m; draft 6.3 m.

Type: Cargo ship. MMSI: 245523000.

Date/timePositionNaut miles runAvg speedWind from/ knotsBaromVisibWave heightAir tempDewpointWater temp
2014-Sep-18 14:29N 38°19' E 014°40'1212.6
2014-Sep-18 13:30N 38°20' E 014°25'1212.7
2014-Sep-18 12:33N 38°20' E 014°09'1312.9
2014-Sep-18 11:33N 38°21' E 013°53'1312.7
2014-Sep-18 10:33N 38°21' E 013°37'1211.8
2014-Sep-18 09:33N 38°22' E 013°22'9 9.0
2014-Sep-18 08:33N 38°22' E 013°10'1212.0
2014-Sep-18 07:33N 38°23' E 012°55'1211.5
2014-Sep-18 06:33N 38°20' E 012°41'8912.1
2014-Sep-17 23:13N 37°59' E 010°51'811.6
2014-Sep-17 22:33N 37°57' E 010°42'1211.8
2014-Sep-17 21:32N 37°53' E 010°28'1211.9
2014-Sep-17 20:33N 37°50' E 010°13'1212.0
2014-Sep-17 19:33N 37°47' E 009°59'1212.1
2014-Sep-17 18:33N 37°42' E 009°45'1212.3
2014-Sep-17 17:33N 37°37' E 009°30'1211.8
2014-Sep-17 16:32N 37°32' E 009°17'1311.2
2014-Sep-17 15:22N 37°26' E 009°02'3512.0
2014-Sep-17 12:27N 37°19' E 008°19'1213.0
2014-Sep-17 11:33N 37°19' E 008°04'1313.6
2014-Sep-17 10:33N 37°19' E 007°47'2813.8
2014-Sep-17 08:33N 37°18' E 007°12'22113.8
2014-Sep-16 16:28N 36°56' E 002°36'2713.8
2014-Sep-16 14:32N 36°51' E 002°03'2813.8
2014-Sep-16 12:32N 36°46' E 001°29'1413.6
2014-Sep-16 11:30N 36°44' E 001°12'1313.6
2014-Sep-16 10:33N 36°42' E 000°56'1813.6
2014-Sep-16 09:13N 36°39' E 000°33'913.5
2014-Sep-16 08:32N 36°38' E 000°22'1414.1
2014-Sep-16 07:33N 36°35' E 000°05'2113.9
2014-Sep-16 06:04N 36°32' W 000°20'813.9
2014-Sep-16 05:30N 36°31' W 000°30'1313.9
2014-Sep-16 04:33N 36°28' W 000°46'10314.5
2014-Sep-15 21:24N 36°10' W 002°52'  
2014-Sep-13 05:27N 43°49' W 006°40'2613.7
2014-Sep-13 03:33N 43°47' W 006°04'1413.7
2014-Sep-13 02:33N 43°45' W 005°45'1413.6
2014-Sep-13 01:33N 43°43' W 005°27'1614.6
2014-Sep-13 00:28N 43°42' W 005°05'1314.3
2014-Sep-12 23:33N 43°40' W 004°47'1413.9
2014-Sep-12 22:33N 43°38' W 004°28'4914.2
2014-Sep-12 19:04N 43°31' W 003°21'714.0
2014-Sep-12 18:33N 43°27' W 003°12'10 5.1
2014-Sep-12 16:32N 43°20' W 003°02'0 0.0
2014-Sep-12 15:33N 43°20' W 003°02'24 1.2
2014-Sep-11 20:04N 43°33' W 003°30'713.3
2014-Sep-11 19:33N 43°34' W 003°40'1813.5
2014-Sep-11 18:13N 43°36' W 004°04'3613.3
2014-Sep-11 15:29N 43°40' W 004°54'1513.1
2014-Sep-11 14:22N 43°42' W 005°14'1012.8
2014-Sep-11 13:33N 43°43' W 005°29'1413.7
2014-Sep-11 12:33N 43°44' W 005°48'40 1.1
2014-Sep-10 00:24N 44°23' W 005°60'1212.3
2014-Sep-09 23:27N 44°35' W 005°59'17110.6
2014-Sep-09 07:22N 47°26' W 005°59'1113.0
2014-Sep-09 06:33N 47°36' W 005°58'1413.6
2014-Sep-09 05:34N 47°50' W 005°58'1414.1
2014-Sep-09 04:33N 48°04' W 005°57'1313.1
2014-Sep-09 03:32N 48°17' W 005°58'  
Track history (hours):
 
Tides and Currents Weather Stations Pressure Air Temp Water Temp Dewpoint Dewpoint Depression Visibility Wind Speed Wind Dir Waves Ship Positions

Motion Scan

Last reported at 2014-Sep-18 14:29 UTC. Time now 2014-Sep-18 19:49 UTC.
Position N 38°19' E 014°40'.

Length 116 m; draft 6.3 m.

Type: Cargo ship. MMSI: 245523000.

Date/timePositionNaut miles runAvg speedWind from/ knotsBaromVisibWave heightAir tempDewpointWater temp
2014-Sep-18 14:29N 38°19' E 014°40'1212.6
2014-Sep-18 13:30N 38°20' E 014°25'1212.7
2014-Sep-18 12:33N 38°20' E 014°09'1312.9
2014-Sep-18 11:33N 38°21' E 013°53'1312.7
2014-Sep-18 10:33N 38°21' E 013°37'1211.8
2014-Sep-18 09:33N 38°22' E 013°22'9 9.0
2014-Sep-18 08:33N 38°22' E 013°10'1212.0
2014-Sep-18 07:33N 38°23' E 012°55'1211.5
2014-Sep-18 06:33N 38°20' E 012°41'8912.1
2014-Sep-17 23:13N 37°59' E 010°51'811.6
2014-Sep-17 22:33N 37°57' E 010°42'1211.8
2014-Sep-17 21:32N 37°53' E 010°28'1211.9
2014-Sep-17 20:33N 37°50' E 010°13'1212.0
2014-Sep-17 19:33N 37°47' E 009°59'1212.1
2014-Sep-17 18:33N 37°42' E 009°45'1212.3
2014-Sep-17 17:33N 37°37' E 009°30'1211.8
2014-Sep-17 16:32N 37°32' E 009°17'1311.2
2014-Sep-17 15:22N 37°26' E 009°02'3512.0
2014-Sep-17 12:27N 37°19' E 008°19'1213.0
2014-Sep-17 11:33N 37°19' E 008°04'1313.6
2014-Sep-17 10:33N 37°19' E 007°47'2813.8
2014-Sep-17 08:33N 37°18' E 007°12'22113.8
2014-Sep-16 16:28N 36°56' E 002°36'2713.8
2014-Sep-16 14:32N 36°51' E 002°03'2813.8
2014-Sep-16 12:32N 36°46' E 001°29'1413.6
2014-Sep-16 11:30N 36°44' E 001°12'1313.6
2014-Sep-16 10:33N 36°42' E 000°56'1813.6
2014-Sep-16 09:13N 36°39' E 000°33'913.5
2014-Sep-16 08:32N 36°38' E 000°22'1414.1
2014-Sep-16 07:33N 36°35' E 000°05'2113.9
2014-Sep-16 06:04N 36°32' W 000°20'813.9
2014-Sep-16 05:30N 36°31' W 000°30'1313.9
2014-Sep-16 04:33N 36°28' W 000°46'10314.5
2014-Sep-15 21:24N 36°10' W 002°52'  
2014-Sep-13 05:27N 43°49' W 006°40'2613.7
2014-Sep-13 03:33N 43°47' W 006°04'1413.7
2014-Sep-13 02:33N 43°45' W 005°45'1413.6
2014-Sep-13 01:33N 43°43' W 005°27'1614.6
2014-Sep-13 00:28N 43°42' W 005°05'1314.3
2014-Sep-12 23:33N 43°40' W 004°47'1413.9
2014-Sep-12 22:33N 43°38' W 004°28'4914.2
2014-Sep-12 19:04N 43°31' W 003°21'714.0
2014-Sep-12 18:33N 43°27' W 003°12'10 5.1
2014-Sep-12 16:32N 43°20' W 003°02'0 0.0
2014-Sep-12 15:33N 43°20' W 003°02'24 1.2
2014-Sep-11 20:04N 43°33' W 003°30'713.3
2014-Sep-11 19:33N 43°34' W 003°40'1813.5
2014-Sep-11 18:13N 43°36' W 004°04'3613.3
2014-Sep-11 15:29N 43°40' W 004°54'1513.1
2014-Sep-11 14:22N 43°42' W 005°14'1012.8
2014-Sep-11 13:33N 43°43' W 005°29'1413.7
2014-Sep-11 12:33N 43°44' W 005°48'40 1.1
2014-Sep-10 00:24N 44°23' W 005°60'1212.3
2014-Sep-09 23:27N 44°35' W 005°59'17110.6
2014-Sep-09 07:22N 47°26' W 005°59'1113.0
2014-Sep-09 06:33N 47°36' W 005°58'1413.6
2014-Sep-09 05:34N 47°50' W 005°58'1414.1
2014-Sep-09 04:33N 48°04' W 005°57'1313.1
2014-Sep-09 03:32N 48°17' W 005°58'  

Dump ship's entire track history